• Join FlightAware (Why Join?)
  • Login
  • US Flag 
Rudolph Flight #1: Arrived! 
11:42AM EST


 

Airport Tracker/Info


-or-


 

Live Flight TrackerFlight Track Log ✈ EJA727 ✈ 09-May-2013 ✈ KPVU - KVNY

Flight Track Log - Related Links

Times and Time Zones

All times are in EDT time to prevent confusion due to time zone crossing. See the EJA727 flight status page for this flight to view local times or setup timezone preferences in your user account.

Time Position Orientation Groundspeed Altitude Reporting Facility
EDT Latitude Longitude Course Direction KTS MPH feet Rate Location/Type
11:27AM 40.2039 -111.7217 221° Southwest 201 231 5,300  Level Salt Lake Center
11:29AM 40.1647 -111.7667 221° Southwest 271 312 8,900 2,220 Climbing Salt Lake Center
11:30AM 40.1678 -111.8697 272° West 268 308 10,400 1,860 Climbing Salt Lake Center
11:31AM 40.1014 -111.9286 214° Southwest 294 338 12,800 2,340 Climbing Salt Lake Center
11:32AM 40.0100 -111.9953 209° Southwest 374 430 15,300 2,760 Climbing Salt Lake Center
11:33AM 39.9022 -112.0508 202° Southwest 412 474 18,600 3,180 Climbing Salt Lake Center
11:34AM 39.7931 -112.1053 201° Southwest 420 483 21,900 2,880 Climbing Salt Lake Center
11:35AM 39.6811 -112.1619 201° Southwest 428 493 24,600 2,460 Climbing Salt Lake Center
11:36AM 39.5417 -112.2308 201° Southwest 448 516 27,000 2,040 Climbing Salt Lake Center
11:37AM 39.4181 -112.2714 194° South 460 529 28,900 1,680 Climbing Salt Lake Center
11:38AM 39.2906 -112.3022 191° South 466 536 30,500 1,200 Climbing Salt Lake Center
11:39AM 39.1658 -112.3339 191° South 468 539 31,500 1,200 Climbing Salt Lake Center
11:40AM 39.0356 -112.3675 191° South 477 549 33,000 1,560 Climbing Salt Lake Center
11:41AM 38.8883 -112.4381 200° South 475 547 34,800 1,320 Climbing Salt Lake Center
11:42AM 38.7675 -112.5078 204° Southwest 477 549 35,800 1,500 Climbing Salt Lake Center
11:43AM 38.6450 -112.5778 204° Southwest 482 555 37,900 1,020 Climbing Salt Lake Center
11:44AM 38.5269 -112.6458 204° Southwest 470 541 38,000  Climbing Salt Lake Center
11:45AM 38.4067 -112.7156 204° Southwest 475 547 38,000  Level Salt Lake Center
11:46AM 38.2892 -112.7839 205° Southwest 468 539 38,000  Level Salt Lake Center
11:47AM 38.1467 -112.8653 204° Southwest 470 541 38,000  Level Salt Lake Center
11:48AM 38.0281 -112.9333 204° Southwest 471 542 38,000  Level Salt Lake Center
11:49AM 37.9089 -112.9997 204° Southwest 472 543 38,000  Level Salt Lake Center
11:50AM 37.7914 -113.0683 205° Southwest 472 543 38,000  Level Salt Lake Center
11:51AM 37.6711 -113.1889 218° Southwest 468 539 38,000  Level Salt Lake Center
11:52AM 37.5714 -113.2903 219° Southwest 468 539 38,000  Level Salt Lake Center
11:53AM 37.4717 -113.3919 219° Southwest 465 535 38,000  Level Salt Lake Center
11:54AM 37.3714 -113.4953 219° Southwest 468 539 38,000  Level Salt Lake Center
11:55AM 37.2694 -113.5947 218° Southwest 469 540 38,000  Level Los Angeles Center
11:56AM 37.1472 -113.7167 219° Southwest 469 540 38,000  Level Salt Lake Center
11:57AM 37.0464 -113.8192 219° Southwest 469 540 38,000  Level Salt Lake Center
11:58AM 36.9583 -113.9067 218° Southwest 468 539 38,000  Level Los Angeles Center
11:59AM 36.8581 -114.0075 219° Southwest 464 534 38,000  Level Los Angeles Center
12:00PM 36.7444 -114.1211 219° Southwest 465 535 38,000  Level Los Angeles Center
12:01PM 36.6447 -114.2208 219° Southwest 463 533 38,000  Level Los Angeles Center
12:02PM 36.5556 -114.3100 219° Southwest 463 533 38,000  Level Los Angeles Center
12:04PM 36.4364 -114.4300 219° Southwest 460 529 38,000  Level Los Angeles Center
12:05PM 36.3356 -114.5297 219° Southwest 461 531 38,000 -480 Level Los Angeles Center
12:06PM 36.2333 -114.6292 218° Southwest 463 533 37,100 -1,200 Descending Los Angeles Center
12:07PM 36.1294 -114.7325 219° Southwest 472 543 35,600 -1,500 Descending Los Angeles Center
12:08PM 36.0244 -114.8342 218° Southwest 475 547 34,100 -780 Descending Los Angeles Center
12:09PM 35.9319 -114.9472 225° Southwest 467 537 34,000 -60 Descending Los Angeles Center
12:11PM 35.7575 -115.1856 228° Southwest 465 535 34,000  Level Los Angeles Center
12:12PM 35.6525 -115.3283 228° Southwest 465 535 34,000  Level Los Angeles Center
12:13PM 35.5642 -115.4464 227° Southwest 465 535 34,000  Level Los Angeles Center
12:14PM 35.4781 -115.5631 228° Southwest 460 529 34,000  Level Los Angeles Center
12:15PM 35.3883 -115.6847 228° Southwest 460 529 34,000 -600 Level Los Angeles Center
12:16PM 35.3006 -115.8006 227° Southwest 463 533 32,700 -1,440 Descending Los Angeles Center
12:17PM 35.1933 -115.9417 227° Southwest 472 543 30,800 -1,740 Descending Los Angeles Center
12:18PM 35.1044 -116.0600 227° Southwest 473 544 29,200 -1,560 Descending Los Angeles Center
12:19PM 35.0153 -116.1772 227° Southwest 471 542 27,600 -1,740 Descending Los Angeles Center
12:20PM 34.9100 -116.3142 227° Southwest 462 532 25,700 -1,680 Descending Los Angeles Center
12:21PM 34.8239 -116.4258 227° Southwest 453 521 24,100 -1,320 Descending Los Angeles Center
12:22PM 34.7872 -116.5672 253° West 445 512 23,000 -1,020 Descending Los Angeles Center
12:24PM 34.7722 -116.7100 263° West 429 494 21,900 -1,020 Descending Los Angeles Center
12:25PM 34.7550 -116.8817 263° West 426 490 20,700 -1,020 Descending Los Angeles Center
12:26PM 34.7403 -117.0233 263° West 423 487 19,700 -900 Descending Los Angeles Center
12:27PM 34.7261 -117.1636 263° West 419 482 18,700 -1,020 Descending Los Angeles Center
12:28PM 34.7056 -117.3592 263° West 414 476 17,400 -1,140 Descending Los Angeles Center
12:29PM 34.6892 -117.5211 263° West 401 461 16,200 -1,080 Descending Los Angeles Center
12:30PM 34.6778 -117.6328 263° West 343 395 15,200 -1,020 Descending Los Angeles Center
12:31PM 34.6656 -117.7397 262° West 323 372 14,100 -1,020 Descending Los Angeles Center
12:32PM 34.6544 -117.8497 263° West 327 376 13,100 -1,020 Descending Los Angeles Center
12:33PM 34.6433 -117.9547 263° West 316 364 12,100 -1,080 Descending Los Angeles Center
12:34PM 34.6294 -118.0753 262° West 302 348 10,900 -1,080 Descending Los Angeles Center
12:35PM 34.6083 -118.1767 256° West 308 354 9,900 -1,020 Descending Los Angeles Center
12:36PM 34.5856 -118.2711 254° West 298 343 8,900 -960 Descending Los Angeles Center
12:37PM 34.5639 -118.3669 255° West 299 344 8,000 -480 Descending Los Angeles Center
12:38PM 34.5194 -118.4442 235° Southwest 284 327 8,000 -780 Level Los Angeles Center
12:40PM 34.4514 -118.5239 224° Southwest 287 330 6,400 -1,380 Descending Los Angeles Center
12:41PM 34.3767 -118.5242 180° South 267 307 5,200 -1,140 Descending Los Angeles Center
12:41PM 34.3333 -118.5167 172° South 238 274 4,700 -1,440 Descending Southern California TRACON
12:42PM 34.2833 -118.5000 165° South 198 228 2,900 -1,620 Descending Southern California TRACON
12:43PM 34.2333 -118.5000 180° South 146 168 1,500 -1,560 Descending Southern California TRACON
12:46PM 34.2098 -118.4900 180° South  Level Estimated
12:53PM 34.2098 -118.4900 180° South  Level Estimated